Time;durP1;ratioP1;P1;durP2;ratioP2;P2;SDS_P1;SDS_P2;PMS_P1;PMS_P2;Temp;Humidity;BMP_temperature;BMP_pressure;BME280_temperature;BME280_humidity;BME280_pressure;Samples;Min_cycle;Max_cycle;Signal;HPM_P1;HPM_P2
2021/01/14 00:00:18;;;;;;;;;;;0.60;99.80;;;;;;4958350;28;19918;-73
2021/01/14 00:02:44;;;;;;;;;;;0.60;99.90;;;;;;4958023;29;20414;-73
2021/01/14 00:05:10;;;;;;;;;;;0.50;99.90;;;;;;4957934;28;19961;-72
2021/01/14 00:07:36;;;;;;;;;;;0.50;99.90;;;;;;4957217;29;20004;-72
2021/01/14 00:10:04;;;;;;;21.10;13.50;;;0.50;99.90;;;;;;4969849;28;20409;-72
2021/01/14 00:12:30;;;;;;;24.92;13.75;;;0.50;99.90;;;;;;4957569;28;20081;-72
2021/01/14 00:14:56;;;;;;;;;;;0.50;99.90;;;;;;4957837;28;20035;-73
2021/01/14 00:17:23;;;;;;;19.25;12.00;;;0.60;99.90;;;;;;4956321;28;20017;-72
2021/01/14 00:19:48;;;;;;;;;;;0.70;99.70;;;;;;4956419;29;20090;-74
2021/01/14 00:22:14;;;;;;;24.13;13.57;;;0.60;99.90;;;;;;4969677;28;19922;-72
2021/01/14 00:24:40;;;;;;;24.23;14.35;;;0.70;99.70;;;;;;4957437;28;20031;-73
2021/01/14 00:27:06;;;;;;;22.50;13.60;;;0.70;99.50;;;;;;4955894;29;20057;-72
2021/01/14 00:29:32;;;;;;;19.17;13.32;;;0.60;99.40;;;;;;4956097;29;20047;-72
2021/01/14 00:31:58;;;;;;;23.02;14.02;;;0.70;99.30;;;;;;4955864;29;20051;-72
2021/01/14 00:34:25;;;;;;;21.60;14.25;;;0.50;99.80;;;;;;4955935;29;20054;-72
2021/01/14 00:39:36;;;;;;;22.58;14.02;;;;;;;;;;4956614;28;20057;-73
2021/01/14 00:42:02;;;;;;;25.08;14.20;;;;;;;;;;4956399;28;20483;-73
2021/01/14 00:44:28;;;;;;;24.45;14.35;;;0.30;99.90;;;;;;4955940;28;20067;-73
2021/01/14 00:46:54;;;;;;;20.92;12.63;;;0.20;99.90;;;;;;4958859;28;20063;-72
2021/01/14 00:49:20;;;;;;;26.33;15.80;;;0.20;99.90;;;;;;4956856;29;20619;-73
2021/01/14 00:51:47;;;;;;;24.98;14.00;;;0.20;99.90;;;;;;4956905;28;20035;-72
2021/01/14 00:54:13;;;;;;;22.50;13.98;;;0.30;99.90;;;;;;4956694;29;20038;-72
2021/01/14 00:56:39;;;;;;;21.83;13.00;;;0.40;99.90;;;;;;4962265;28;20043;-72
2021/01/14 00:59:07;;;;;;;23.77;13.55;;;0.50;99.80;;;;;;4961068;28;20043;-73
2021/01/14 01:01:34;;;;;;;22.55;13.65;;;0.50;99.70;;;;;;4955622;29;20071;-72
2021/01/14 01:04:00;;;;;;;22.98;14.20;;;0.30;99.90;;;;;;4956335;29;20062;-72
2021/01/14 01:06:32;;;;;;;24.50;15.98;;;;;;;;;;4957434;28;20045;-72
2021/01/14 01:09:00;;;;;;;21.55;13.25;;;;;;;;;;4973433;28;20081;-72
2021/01/14 01:11:28;;;;;;;;;;;;;;;;;;4967421;28;20039;-73
2021/01/14 01:13:55;;;;;;;20.67;15.48;;;;;;;;;;4956634;29;19906;-72
2021/01/14 01:16:21;;;;;;;22.85;12.77;;;;;;;;;;4956727;28;20049;-73
2021/01/14 01:18:47;;;;;;;19.73;12.85;;;;;;;;;;4955025;28;20043;-72
2021/01/14 01:21:13;;;;;;;18.58;12.10;;;;;;;;;;4956446;28;20070;-72
2021/01/14 01:23:40;;;;;;;18.27;12.32;;;;;;;;;;4969724;28;20039;-72
2021/01/14 01:26:07;;;;;;;20.60;13.85;;;;;;;;;;4964523;28;20047;-73
2021/01/14 01:28:33;;;;;;;18.80;12.75;;;;;;;;;;4959960;28;20047;-73
2021/01/14 01:30:59;;;;;;;19.90;13.07;;;;;;;;;;4962538;28;20042;-72
2021/01/14 01:33:26;;;;;;;18.88;12.70;;;;;;;;;;4961868;28;20050;-72
2021/01/14 01:35:52;;;;;;;19.77;13.35;;;;;;;;;;4941742;28;20074;-73
2021/01/14 01:38:19;;;;;;;23.90;13.75;;;;;;;;;;4954807;29;20130;-73
2021/01/14 01:40:45;;;;;;;20.42;12.73;;;;;;;;;;4954763;28;20046;-72
2021/01/14 01:43:12;;;;;;;20.67;13.98;;;;;;;;;;4954791;28;20051;-73
2021/01/14 01:45:38;;;;;;;18.83;12.35;;;;;;;;;;4955533;28;20051;-73
2021/01/14 01:48:04;;;;;;;19.42;11.27;;;;;;;;;;4943917;29;20085;-72
2021/01/14 01:50:31;;;;;;;19.45;13.07;;;;;;;;;;4955810;28;20047;-72
2021/01/14 01:52:58;;;;;;;16.55;11.90;;;;;;;;;;4965174;28;20538;-73
2021/01/14 01:55:24;;;;;;;21.95;13.00;;;;;;;;;;4949199;29;20039;-72
2021/01/14 01:57:50;;;;;;;19.65;12.88;;;0.20;99.90;;;;;;4955597;29;20095;-73
2021/01/14 02:00:18;;;;;;;18.05;11.40;;;0.20;99.90;;;;;;4955611;28;20031;-72
2021/01/14 02:02:43;;;;;;;18.67;11.88;;;0.20;99.90;;;;;;4955471;28;20074;-72
2021/01/14 02:05:10;;;;;;;19.73;12.63;;;0.20;99.90;;;;;;4953620;28;20083;-72
2021/01/14 02:07:51;;;;;;;18.38;12.68;;;0.10;99.90;;;;;;4957096;28;20043;-72
2021/01/14 02:10:21;;;;;;;16.08;10.73;;;0.10;99.90;;;;;;4948204;28;20500;-73
2021/01/14 02:13:00;;;;;;;19.75;10.98;;;0.10;99.90;;;;;;4954175;28;20522;-72
2021/01/14 02:15:29;;;;;;;19.75;13.48;;;0.20;99.80;;;;;;4954385;29;20398;-72
2021/01/14 02:17:55;;;;;;;19.10;13.15;;;0.20;99.90;;;;;;4953129;29;20421;-73
2021/01/14 02:20:22;;;;;;;19.20;13.68;;;0.10;99.90;;;;;;4966345;28;20406;-73
2021/01/14 02:22:57;;;;;;;19.63;14.13;;;0.00;99.90;;;;;;4953065;29;20409;-72
2021/01/14 02:25:27;;;;;;;18.02;13.00;;;0.00;99.90;;;;;;4967533;28;20398;-72
2021/01/14 02:27:54;;;;;;;18.55;10.57;;;0.10;99.90;;;;;;4955256;29;20118;-72
2021/01/14 02:30:20;;;;;;;18.67;12.30;;;;;;;;;;4967489;28;20046;-72
2021/01/14 02:32:46;;;;;;;17.70;11.55;;;;;;;;;;4955404;28;20039;-72
2021/01/14 02:35:13;;;;;;;18.10;11.30;;;;;;;;;;4954074;29;20095;-72
2021/01/14 02:37:39;;;;;;;16.65;11.13;;;;;;;;;;4955294;29;20086;-72
2021/01/14 02:40:06;;;;;;;17.77;12.52;;;;;;;;;;4943125;28;20036;-72
2021/01/14 02:42:32;;;;;;;19.85;11.80;;;;;;;;;;4952743;29;20051;-72
2021/01/14 02:44:59;;;;;;;17.95;11.60;;;;;;;;;;4955165;28;20550;-72
2021/01/14 02:47:25;;;;;;;17.58;11.23;;;;;;;;;;4954173;28;20500;-72
2021/01/14 02:49:55;;;;;;;19.30;11.85;;;;;;;;;;4937045;29;20058;-72
2021/01/14 02:52:22;;;;;;;19.35;11.73;;;;;;;;;;4949073;29;20050;-72
2021/01/14 02:54:48;;;;;;;20.20;10.70;;;;;;;;;;4953929;29;20043;-73
2021/01/14 02:57:16;;;;;;;17.70;11.10;;;;;;;;;;4953892;28;20118;-72
2021/01/14 02:59:42;;;;;;;16.08;11.02;;;;;;;;;;4940139;28;20104;-73
2021/01/14 03:02:09;;;;;;;17.30;11.13;;;;;;;;;;4948044;29;20448;-73
2021/01/14 03:04:35;;;;;;;19.15;13.15;;;;;;;;;;4956128;28;20059;-72
2021/01/14 03:07:01;;;;;;;18.05;11.95;;;;;;;;;;4958780;29;20047;-72
2021/01/14 03:09:27;;;;;;;15.77;11.65;;;0.10;99.90;;;;;;4957368;28;20055;-72
2021/01/14 03:11:55;;;;;;;18.55;12.38;;;-0.90;99.90;;;;;;4958755;28;20507;-72
2021/01/14 03:14:21;;;;;;;16.95;11.15;;;-0.90;99.90;;;;;;4957466;29;20074;-73
2021/01/14 03:16:47;;;;;;;20.90;12.95;;;;;;;;;;4970857;28;20035;-72
2021/01/14 03:19:14;;;;;;;17.90;11.63;;;;;;;;;;4966244;28;20038;-72
2021/01/14 03:21:40;;;;;;;26.42;13.73;;;;;;;;;;4961782;28;20047;-72
2021/01/14 03:24:07;;;;;;;23.98;12.38;;;;;;;;;;4964437;28;20070;-73
2021/01/14 03:26:36;;;;;;;17.58;12.25;;;;;;;;;;4963425;28;20043;-73
2021/01/14 03:29:02;;;;;;;18.27;11.65;;;;;;;;;;4957160;29;20050;-72
2021/01/14 03:31:28;;;;;;;19.35;11.68;;;;;;;;;;4953540;29;20134;-73
2021/01/14 03:33:54;;;;;;;20.23;12.10;;;;;;;;;;4957559;28;20164;-73
2021/01/14 03:36:22;;;;;;;19.95;12.95;;;;;;;;;;4957897;29;20122;-73
2021/01/14 03:38:48;;;;;;;18.42;11.93;;;;;;;;;;4954165;28;20496;-73
2021/01/14 03:41:15;;;;;;;22.90;12.23;;;;;;;;;;4958074;28;20040;-72
2021/01/14 03:43:41;;;;;;;16.35;11.63;;;;;;;;;;4951049;28;20075;-72
2021/01/14 03:46:08;;;;;;;16.73;10.85;;;;;;;;;;4956815;28;20407;-73
2021/01/14 03:48:38;;;;;;;18.45;10.82;;;;;;;;;;4958083;29;20079;-72
2021/01/14 03:51:04;;;;;;;17.02;11.48;;;;;;;;;;4956278;29;20047;-73
2021/01/14 03:53:31;;;;;;;19.27;12.10;;;;;;;;;;4956194;29;20487;-72
2021/01/14 03:55:57;;;;;;;21.10;13.02;;;;;;;;;;4956237;28;20049;-73
2021/01/14 03:58:23;;;;;;;21.50;11.35;;;;;;;;;;4953775;28;20068;-72
2021/01/14 04:00:49;;;;;;;17.92;11.93;;;;;;;;;;4952575;28;20049;-73
2021/01/14 04:03:17;;;;;;;19.75;13.48;;;;;;;;;;4948466;28;20127;-72
2021/01/14 04:05:43;;;;;;;19.98;13.05;;;;;;;;;;4950859;28;20050;-72
2021/01/14 04:08:09;;;;;;;20.83;13.05;;;;;;;;;;4956446;29;20046;-72
2021/01/14 04:10:36;;;;;;;17.15;12.93;;;;;;;;;;4957713;28;20086;-72
2021/01/14 04:13:03;;;;;;;17.42;12.48;;;;;;;;;;4957513;29;20090;-72
2021/01/14 04:15:29;;;;;;;18.75;11.80;;;;;;;;;;4956311;28;20043;-72
2021/01/14 04:17:55;;;;;;;21.40;13.48;;;;;;;;;;4956400;28;20054;-72
2021/01/14 04:20:21;;;;;;;19.20;13.20;;;-0.90;99.90;;;;;;4956196;29;20571;-72
2021/01/14 04:22:49;;;;;;;19.02;12.18;;;-1.40;99.90;;;;;;4957504;28;20066;-72
2021/01/14 04:25:15;;;;;;;20.98;13.65;;;-1.40;99.90;;;;;;4942302;29;20627;-72
2021/01/14 04:27:42;;;;;;;22.13;13.07;;;-1.40;99.90;;;;;;4955973;29;20043;-72
2021/01/14 04:30:09;;;;;;;22.75;13.50;;;-1.50;99.90;;;;;;4956775;28;20039;-72
2021/01/14 04:32:35;;;;;;;18.90;13.55;;;-1.50;99.90;;;;;;4956232;29;20039;-73
2021/01/14 04:35:01;;;;;;;16.92;12.80;;;-1.50;99.90;;;;;;4955891;29;20050;-73
2021/01/14 04:37:27;;;;;;;20.30;12.88;;;-1.50;99.90;;;;;;4957149;29;20043;-72
2021/01/14 04:39:53;;;;;;;22.80;13.90;;;;;;;;;;4957106;28;20063;-72
2021/01/14 04:42:19;;;;;;;16.90;12.00;;;;;;;;;;4955673;28;20129;-72
2021/01/14 04:44:46;;;;;;;19.05;12.80;;;;;;;;;;4953132;29;20487;-73
2021/01/14 04:47:13;;;;;;;18.23;12.98;;;;;;;;;;4962610;28;20055;-73
2021/01/14 04:49:39;;;;;;;21.90;15.52;;;;;;;;;;4949901;29;20043;-72
2021/01/14 04:52:06;;;;;;;23.23;14.07;;;;;;;;;;4963238;28;20039;-72
2021/01/14 04:54:34;;;;;;;19.58;13.32;;;;;;;;;;4954250;28;20455;-72
2021/01/14 04:57:03;;;;;;;21.70;13.10;;;;;;;;;;4955208;29;20046;-72
2021/01/14 04:59:32;;;;;;;27.90;15.32;;;;;;;;;;4964435;28;20050;-72
2021/01/14 05:01:59;;;;;;;22.38;14.95;;;;;;;;;;4955341;29;20035;-73
2021/01/14 05:04:29;;;;;;;19.27;13.20;;;;;;;;;;4948359;28;20059;-72
2021/01/14 05:06:57;;;;;;;20.02;13.85;;;;;;;;;;4954556;28;20407;-72
2021/01/14 05:09:25;;;;;;;20.90;13.70;;;;;;;;;;4964259;28;20158;-73
2021/01/14 05:11:55;;;;;;;23.05;13.70;;;;;;;;;;4955759;28;20041;-73
2021/01/14 05:14:21;;;;;;;23.48;13.50;;;;;;;;;;4956975;29;20395;-72
2021/01/14 05:16:48;;;;;;;20.17;13.00;;;;;;;;;;4948698;28;20439;-73
2021/01/14 05:19:15;;;;;;;22.23;14.63;;;;;;;;;;4951913;28;20050;-72
2021/01/14 05:21:43;;;;;;;20.33;13.48;;;-1.60;99.90;;;;;;4968346;28;20047;-73
2021/01/14 05:24:10;;;;;;;21.00;13.57;;;-1.80;99.90;;;;;;4957391;28;20158;-72
2021/01/14 05:26:36;;;;;;;18.85;13.45;;;-1.80;99.90;;;;;;4954534;28;20043;-72
2021/01/14 05:29:12;;;;;;;19.60;12.88;;;-1.90;99.90;;;;;;4950312;28;20065;-72
2021/01/14 05:31:38;;;;;;;20.25;13.70;;;-1.90;99.90;;;;;;4956090;28;20036;-73
2021/01/14 05:34:04;;;;;;;18.27;12.02;;;-1.90;99.90;;;;;;4960992;28;20396;-73
2021/01/14 05:36:51;;;;;;;19.52;13.65;;;-2.00;99.90;;;;;;4948156;29;20032;-72
2021/01/14 05:39:17;;;;;;;22.92;16.80;;;-2.00;99.90;;;;;;4953293;29;20054;-72
2021/01/14 05:41:43;;;;;;;25.25;15.63;;;-2.00;99.90;;;;;;4954472;29;20038;-74
2021/01/14 05:44:09;;;;;;;25.00;15.35;;;-1.90;99.90;;;;;;4955404;29;20090;-73
2021/01/14 05:46:38;;;;;;;24.25;15.68;;;-1.80;99.90;;;;;;4951609;28;20067;-72
2021/01/14 05:49:08;;;;;;;19.73;13.18;;;-1.70;99.90;;;;;;4951726;29;20043;-73
2021/01/14 05:51:35;;;;;;;20.23;13.40;;;-1.60;99.90;;;;;;4951798;28;20043;-72
2021/01/14 05:54:03;;;;;;;21.08;12.38;;;-1.70;99.90;;;;;;4951641;29;20047;-72
2021/01/14 05:56:47;;;;;;;22.95;14.55;;;-1.70;99.90;;;;;;4952570;29;20411;-72
2021/01/14 05:59:15;;;;;;;28.45;17.05;;;-1.80;99.90;;;;;;4951500;28;20039;-72
2021/01/14 06:01:52;;;;;;;24.42;15.57;;;-1.90;99.90;;;;;;4959051;28;20062;-73
2021/01/14 06:04:19;;;;;;;24.17;16.42;;;-1.90;99.90;;;;;;4949156;28;20055;-73
2021/01/14 06:06:46;;;;;;;22.63;14.65;;;-1.80;99.90;;;;;;4954580;29;20154;-72
2021/01/14 06:09:17;;;;;;;19.77;13.77;;;-1.70;99.90;;;;;;4950934;29;20047;-72
2021/01/14 06:11:44;;;;;;;19.80;13.63;;;-1.80;99.90;;;;;;4954155;28;20043;-72
2021/01/14 06:14:26;;;;;;;21.73;15.60;;;-1.90;99.90;;;;;;4954590;29;20067;-73
2021/01/14 06:16:53;;;;;;;22.60;14.75;;;-2.00;99.90;;;;;;4954138;29;20043;-72
2021/01/14 06:19:19;;;;;;;24.55;15.43;;;-2.10;99.90;;;;;;4964880;28;20039;-73
2021/01/14 06:21:46;;;;;;;23.17;16.20;;;-2.10;99.90;;;;;;4965392;28;20539;-72
2021/01/14 06:24:20;;;;;;;32.35;20.88;;;-2.10;99.90;;;;;;4950706;29;20066;-73
2021/01/14 06:26:46;;;;;;;;;;;-1.90;99.90;;;;;;4958199;28;20558;-72
2021/01/14 06:29:21;;;;;;;;;;;-1.90;99.90;;;;;;4956392;28;20013;-72
2021/01/14 06:31:47;;;;;;;;;;;-1.90;99.90;;;;;;4954173;28;19929;-73
2021/01/14 06:34:16;;;;;;;;;;;-1.90;99.90;;;;;;4951179;29;20375;-73
2021/01/14 06:36:46;;;;;;;25.00;14.80;;;-1.90;99.90;;;;;;4954062;29;19918;-72
2021/01/14 06:39:15;;;;;;;24.15;16.75;;;-1.80;99.90;;;;;;4957717;28;20035;-72
2021/01/14 06:41:43;;;;;;;28.80;16.70;;;-1.80;99.90;;;;;;4959373;28;20514;-72
2021/01/14 06:44:12;;;;;;;24.90;15.43;;;-1.80;99.90;;;;;;4957813;28;20055;-72
2021/01/14 06:46:40;;;;;;;20.08;14.38;;;-1.70;99.90;;;;;;4959310;28;20059;-74
2021/01/14 06:49:08;;;;;;;19.80;13.45;;;-1.60;99.90;;;;;;4957865;28;20054;-72
2021/01/14 06:51:55;;;;;;;23.70;14.05;;;-1.60;99.90;;;;;;4957865;29;20077;-73
2021/01/14 06:54:22;;;;;;;19.63;11.68;;;-1.60;99.90;;;;;;4970876;28;20093;-72
2021/01/14 06:56:58;;;;;;;19.33;13.65;;;-1.60;99.90;;;;;;4957875;29;20075;-73
2021/01/14 06:59:25;;;;;;;18.90;13.23;;;-1.60;99.90;;;;;;4958937;28;20043;-73
2021/01/14 07:02:19;;;;;;;18.65;14.32;;;-1.60;99.90;;;;;;4957767;29;20043;-72
2021/01/14 07:04:52;;;;;;;21.95;13.80;;;-1.60;99.90;;;;;;4975752;28;20520;-72
2021/01/14 07:07:46;;;;;;;19.50;14.40;;;-1.50;99.90;;;;;;4964368;28;20129;-72
2021/01/14 07:10:13;;;;;;;18.65;13.43;;;-1.60;99.90;;;;;;4951123;29;20051;-72
2021/01/14 07:12:44;;;;;;;22.38;14.77;;;-1.70;99.90;;;;;;4957533;29;20378;-73
2021/01/14 07:15:12;;;;;;;24.48;15.45;;;-1.60;99.90;;;;;;4972118;28;20062;-72
2021/01/14 07:17:40;;;;;;;23.42;14.60;;;-1.70;99.90;;;;;;4958536;29;20110;-73
2021/01/14 07:20:09;;;;;;;25.70;15.75;;;-1.60;99.90;;;;;;4959681;28;20047;-72
2021/01/14 07:22:42;;;;;;;33.92;20.88;;;-1.60;99.90;;;;;;4969404;28;20039;-73
2021/01/14 07:25:12;;;;;;;29.58;18.80;;;-1.70;99.90;;;;;;4957168;29;20047;-72
2021/01/14 07:27:39;;;;;;;31.98;22.15;;;-1.80;99.90;;;;;;4958555;28;20041;-73
2021/01/14 07:30:09;;;;;;;25.42;17.75;;;-1.80;99.90;;;;;;4957023;29;20532;-73
2021/01/14 07:32:51;;;;;;;30.23;17.95;;;-1.90;99.90;;;;;;4957127;29;20073;-73
2021/01/14 07:35:37;;;;;;;27.85;18.38;;;-1.90;99.90;;;;;;4944928;29;20039;-73
2021/01/14 07:38:04;;;;;;;25.90;18.13;;;-1.90;99.90;;;;;;4958220;28;20039;-74
2021/01/14 07:40:31;;;;;;;32.72;21.17;;;-1.90;99.90;;;;;;4957054;29;20403;-73
2021/01/14 07:42:58;;;;;;;34.33;21.27;;;-1.90;99.90;;;;;;4957030;29;20047;-73
2021/01/14 07:45:24;;;;;;;30.95;20.10;;;-1.80;99.90;;;;;;4956709;29;20046;-73
2021/01/14 07:47:51;;;;;;;31.38;19.60;;;-1.70;99.90;;;;;;4951932;29;20040;-73
2021/01/14 07:50:19;;;;;;;34.17;20.42;;;-1.70;99.90;;;;;;4961257;28;20074;-73
2021/01/14 07:52:46;;;;;;;30.50;20.40;;;-1.70;99.90;;;;;;4962111;28;20046;-73
2021/01/14 07:55:12;;;;;;;28.90;19.05;;;;;;;;;;4965098;28;20098;-73
2021/01/14 07:57:45;;;;;;;29.40;19.83;;;;;;;;;;4957792;29;20482;-73
2021/01/14 08:00:21;;;;;;;28.23;17.90;;;;;;;;;;4958014;29;20094;-73
2021/01/14 08:03:05;;;;;;;30.52;19.33;;;;;;;;;;4956572;28;20139;-73
2021/01/14 08:05:40;;;;;;;22.05;15.15;;;-1.50;99.90;;;;;;4967888;28;20058;-73
2021/01/14 08:08:40;;;;;;;23.42;14.88;;;0.70;99.90;;;;;;4952335;28;20044;-73
2021/01/14 08:11:10;;;;;;;21.60;14.63;;;0.60;99.90;;;;;;4913807;29;20542;-73
2021/01/14 08:14:10;;;;;;;23.45;16.30;;;0.60;99.90;;;;;;4901929;29;20093;-73
2021/01/14 08:16:38;;;;;;;22.02;15.70;;;;;;;;;;4935646;29;20059;-73
2021/01/14 08:19:19;;;;;;;20.98;15.07;;;;;;;;;;4957515;28;20067;-73
2021/01/14 08:21:46;;;;;;;32.22;21.02;;;;;;;;;;4937300;28;20098;-74
2021/01/14 08:24:13;;;;;;;23.52;15.38;;;;;;;;;;4967567;28;20503;-73
2021/01/14 08:26:55;;;;;;;23.13;16.30;;;;;;;;;;4969735;28;20043;-74
2021/01/14 08:29:28;;;;;;;29.90;18.65;;;;;;;;;;4957657;29;20054;-73
2021/01/14 08:31:54;;;;;;;28.60;19.73;;;;;;;;;;4957252;28;20043;-73
2021/01/14 08:34:22;;;;;;;25.90;18.27;;;;;;;;;;4956203;29;20078;-73
2021/01/14 08:36:50;;;;;;;24.33;17.27;;;;;;;;;;4956117;29;20054;-73
2021/01/14 08:39:18;;;;;;;20.90;15.52;;;;;;;;;;4958867;28;20047;-74
2021/01/14 08:41:44;;;;;;;;;;;;;;;;;;4968440;28;20043;-73
2021/01/14 08:44:11;;;;;;;24.35;14.95;;;;;;;;;;4956785;28;19906;-73
2021/01/14 08:46:38;;;;;;;21.25;15.23;;;1.20;99.90;;;;;;4967111;28;20051;-74
2021/01/14 08:49:10;;;;;;;;;;;1.80;99.90;;;;;;4975925;28;20065;-73
2021/01/14 08:51:37;;;;;;;;;;;1.90;99.90;;;;;;4965964;28;20326;-74
2021/01/14 08:54:05;;;;;;;;;;;2.00;99.90;;;;;;4972063;28;20008;-74
2021/01/14 08:56:30;;;;;;;23.00;16.15;;;2.20;99.90;;;;;;4955755;28;19973;-74
2021/01/14 08:59:02;;;;;;;;;;;2.40;99.90;;;;;;4955956;28;20043;-75
2021/01/14 09:01:30;;;;;;;24.98;16.00;;;2.50;99.30;;;;;;4943772;29;19918;-74
2021/01/14 09:03:56;;;;;;;;;;;2.70;99.00;;;;;;4957020;29;20109;-74
2021/01/14 09:06:29;;;;;;;;;;;2.90;99.10;;;;;;4955763;29;19922;-74
2021/01/14 09:08:55;;;;;;;;;;;3.10;99.00;;;;;;4944701;28;19925;-74
2021/01/14 09:11:21;;;;;;;;;;;;;;;;;;4955214;29;20347;-74
2021/01/14 09:13:47;;;;;;;;;;;3.50;99.90;;;;;;4963332;28;19942;-74
2021/01/14 09:16:13;;;;;;;23.80;17.00;;;3.60;99.90;;;;;;4962488;28;20417;-74
2021/01/14 09:18:42;;;;;;;22.30;15.70;;;4.50;99.90;;;;;;4956482;29;20054;-73
2021/01/14 09:21:09;;;;;;;;;;;4.00;99.90;;;;;;4966143;28;20503;-74
2021/01/14 09:23:35;;;;;;;;;;;;;;;;;;4971291;28;19918;-74
2021/01/14 09:26:02;;;;;;;30.23;23.63;;;;;;;;;;4955154;29;19993;-74
2021/01/14 09:28:28;;;;;;;21.88;14.13;;;;;;;;;;4968259;28;20043;-74
2021/01/14 09:30:56;;;;;;;;;;;4.60;95.50;;;;;;4955567;29;20051;-73
2021/01/14 09:33:25;;;;;;;16.15;12.27;;;4.90;95.80;;;;;;4955041;29;19949;-74
2021/01/14 09:36:07;;;;;;;18.02;13.93;;;5.00;95.90;;;;;;4941836;29;20047;-74
2021/01/14 09:38:45;;;;;;;17.38;14.27;;;;;;;;;;4952103;28;20499;-74
2021/01/14 09:41:12;;;;;;;18.05;14.15;;;5.70;94.40;;;;;;4972909;28;20405;-74
2021/01/14 09:43:39;;;;;;;15.98;12.85;;;6.00;93.40;;;;;;4960479;28;20443;-74
2021/01/14 09:46:09;;;;;;;14.13;12.13;;;;;;;;;;4956437;28;20413;-73
2021/01/14 09:48:36;;;;;;;13.38;10.98;;;6.70;90.90;;;;;;4954809;28;20554;-74
2021/01/14 09:51:10;;;;;;;13.50;11.17;;;7.20;90.20;;;;;;4971238;28;20457;-73
2021/01/14 09:53:46;;;;;;;15.77;12.43;;;;;;;;;;4962217;28;20398;-74
2021/01/14 09:56:17;;;;;;;13.82;11.02;;;7.30;90.10;;;;;;4941322;28;20417;-73
2021/01/14 09:58:46;;;;;;;14.40;12.30;;;7.90;87.30;;;;;;4943284;29;20486;-74
2021/01/14 10:01:16;;;;;;;14.10;10.23;;;8.10;87.80;;;;;;4953408;28;20936;-73
2021/01/14 10:03:47;;;;;;;9.02;8.15;;;8.50;83.30;;;;;;4954569;28;20406;-74
2021/01/14 10:06:15;;;;;;;6.45;4.55;;;8.90;81.90;;;;;;4949626;29;20408;-74
2021/01/14 10:08:46;;;;;;;2.55;1.40;;;;;;;;;;4944226;29;20412;-74
2021/01/14 10:11:12;;;;;;;2.53;0.22;;;10.40;68.20;;;;;;4953057;28;20485;-74
2021/01/14 10:13:47;;;;;;;2.30;0.20;;;;;;;;;;4954219;28;20398;-73
2021/01/14 10:16:14;;;;;;;1.50;0.10;;;;;;;;;;4954493;28;20461;-74
2021/01/14 10:18:40;;;;;;;0.57;0.05;;;;;;;;;;4953180;29;20405;-74
2021/01/14 10:21:07;;;;;;;0.40;0.10;;;;;;;;;;4953215;29;20402;-75
2021/01/14 10:23:34;;;;;;;0.75;0.10;;;;;;;;;;4953032;28;20430;-74
2021/01/14 10:26:00;;;;;;;1.40;0.10;;;;;;;;;;4953084;29;20413;-74
2021/01/14 10:28:26;;;;;;;0.70;0.10;;;;;;;;;;4953592;28;20417;-74
2021/01/14 10:30:53;;;;;;;2.00;0.15;;;;;;;;;;4954764;28;20426;-74
2021/01/14 10:33:20;;;;;;;4.55;0.30;;;;;;;;;;4943517;28;20418;-73
2021/01/14 10:35:54;;;;;;;2.55;0.10;;;;;;;;;;4952503;29;20952;-73
2021/01/14 10:38:20;;;;;;;2.88;0.10;;;;;;;;;;4941197;29;20506;-73
2021/01/14 10:40:48;;;;;;;1.58;0.20;;;;;;;;;;4955722;28;20408;-74
2021/01/14 10:43:14;;;;;;;1.98;0.10;;;;;;;;;;4961677;28;20473;-74
2021/01/14 10:45:41;;;;;;;0.68;0.05;;;;;;;;;;4954048;29;20402;-74
2021/01/14 10:48:09;;;;;;;0.80;0.10;;;;;;;;;;4954136;29;20430;-73
2021/01/14 10:50:45;;;;;;;0.93;0.10;;;;;;;;;;4953794;29;20421;-74
2021/01/14 10:53:12;;;;;;;0.40;0.10;;;;;;;;;;4961033;28;20404;-74
2021/01/14 10:55:41;;;;;;;0.50;0.20;;;;;;;;;;4957418;28;20550;-74
2021/01/14 10:58:07;;;;;;;0.70;0.10;;;;;;;;;;4954050;29;20426;-75
2021/01/14 11:00:34;;;;;;;0.20;0.20;;;;;;;;;;4965304;28;20418;-74
2021/01/14 11:03:08;;;;;;;0.35;0.20;;;;;;;;;;4958974;28;20400;-73
2021/01/14 11:05:41;;;;;;;1.30;0.10;;;;;;;;;;4959823;28;20410;-74
2021/01/14 11:08:09;;;;;;;1.10;0.10;;;;;;;;;;4953882;28;20534;-74
2021/01/14 11:10:35;;;;;;;0.70;0.10;;;;;;;;;;4952611;29;20421;-74
2021/01/14 11:13:02;;;;;;;0.50;0.20;;;;;;;;;;4952225;29;20417;-74
2021/01/14 11:15:29;;;;;;;1.65;0.10;;;;;;;;;;4952764;29;20406;-73
2021/01/14 11:17:55;;;;;;;0.90;0.10;;;;;;;;;;4953943;28;20413;-74
2021/01/14 11:20:21;;;;;;;1.10;0.00;;;;;;;;;;4956878;28;20423;-73
2021/01/14 11:22:47;;;;;;;0.60;0.00;;;;;;;;;;4961732;28;20412;-74
2021/01/14 11:25:14;;;;;;;0.50;0.00;;;;;;;;;;4954351;28;20814;-74
2021/01/14 11:27:40;;;;;;;0.60;0.00;;;;;;;;;;4956152;29;20410;-74
2021/01/14 11:30:07;;;;;;;0.80;0.03;;;;;;;;;;4942481;29;20412;-73
2021/01/14 11:32:34;;;;;;;0.40;0.10;;;;;;;;;;4962627;28;20416;-74
2021/01/14 11:35:00;;;;;;;0.75;0.10;;;;;;;;;;4975010;28;20408;-74
2021/01/14 11:37:26;;;;;;;0.30;0.10;;;;;;;;;;4956511;28;20410;-74
2021/01/14 11:39:52;;;;;;;0.10;0.00;;;;;;;;;;4956157;29;20536;-74
2021/01/14 11:42:19;;;;;;;0.90;0.10;;;;;;;;;;4968925;28;20920;-74
2021/01/14 11:44:45;;;;;;;1.15;0.30;;;;;;;;;;4956876;29;20410;-74
2021/01/14 11:47:11;;;;;;;0.10;0.00;;;;;;;;;;4968020;28;20404;-73
2021/01/14 11:49:38;;;;;;;0.60;0.10;;;;;;;;;;4955677;29;20768;-73
2021/01/14 11:52:04;;;;;;;0.60;0.00;;;;;;;;;;4950042;29;20426;-73
2021/01/14 11:54:30;;;;;;;0.73;0.03;;;;;;;;;;4955016;28;20396;-73
2021/01/14 11:56:58;;;;;;;1.77;0.10;;;;;;;;;;4945688;28;20488;-74
2021/01/14 11:59:25;;;;;;;0.20;0.00;;;;;;;;;;4947673;28;20418;-73
2021/01/14 12:01:51;;;;;;;1.25;0.00;;;;;;;;;;4949503;28;20408;-73
2021/01/14 12:04:17;;;;;;;0.73;0.03;;;;;;;;;;4952595;28;20743;-74
2021/01/14 12:06:50;;;;;;;1.63;0.00;;;;;;;;;;4956572;28;20453;-73
2021/01/14 12:09:16;;;;;;;0.10;0.10;;;;;;;;;;4949771;29;20415;-74
2021/01/14 12:11:42;;;;;;;0.50;0.00;;;;;;;;;;4947197;29;20433;-73
2021/01/14 12:14:08;;;;;;;0.73;0.00;;;;;;;;;;4950725;28;20407;-73
2021/01/14 12:16:35;;;;;;;1.17;0.00;;;;;;;;;;4956406;29;20481;-73
2021/01/14 12:19:04;;;;;;;0.50;0.10;;;;;;;;;;4954868;29;20501;-73
2021/01/14 12:21:30;;;;;;;0.80;0.00;;;;;;;;;;4954827;28;20482;-73
2021/01/14 12:23:56;;;;;;;0.30;0.00;;;;;;;;;;4950915;29;20903;-72
2021/01/14 12:26:22;;;;;;;0.60;0.00;;;;;;;;;;4948703;29;20834;-73
2021/01/14 12:28:48;;;;;;;0.13;0.00;;;;;;;;;;4953600;28;20410;-73
2021/01/14 12:31:15;;;;;;;1.20;0.07;;;;;;;;;;4940156;29;20502;-72
2021/01/14 12:33:42;;;;;;;4.10;0.20;;;;;;;;;;4955799;28;20405;-73
2021/01/14 12:36:08;;;;;;;0.60;0.00;;;;;;;;;;4955943;28;20416;-73
2021/01/14 12:38:34;;;;;;;3.97;0.10;;;;;;;;;;4955885;29;20461;-73
2021/01/14 12:41:00;;;;;;;5.22;4.38;;;;;;;;;;4951690;29;20404;-73
2021/01/14 12:43:26;;;;;;;0.90;0.10;;;;;;;;;;4944843;29;20408;-74
2021/01/14 12:45:52;;;;;;;6.85;4.28;;;;;;;;;;4961037;28;20398;-73
2021/01/14 12:48:19;;;;;;;6.03;5.00;;;;;;;;;;4948409;28;20413;-73
2021/01/14 12:50:46;;;;;;;6.55;4.95;;;;;;;;;;4949385;28;20898;-73
2021/01/14 12:53:12;;;;;;;5.40;4.65;;;;;;;;;;4949470;28;20456;-74
2021/01/14 12:55:38;;;;;;;6.95;4.32;;;;;;;;;;4948111;29;20467;-73
2021/01/14 12:58:05;;;;;;;5.07;4.18;;;;;;;;;;4951797;29;20406;-73
2021/01/14 13:00:31;;;;;;;5.18;4.00;;;;;;;;;;4949505;28;20468;-73
2021/01/14 13:02:57;;;;;;;4.55;4.13;;;;;;;;;;4950930;28;20401;-73
2021/01/14 13:05:23;;;;;;;4.63;3.53;;;;;;;;;;4943287;29;20411;-73
2021/01/14 13:07:50;;;;;;;5.90;3.92;;;;;;;;;;4943588;28;20905;-73
2021/01/14 13:10:17;;;;;;;5.10;3.38;;;;;;;;;;4949575;29;20408;-73
2021/01/14 13:12:43;;;;;;;4.35;3.70;;;;;;;;;;4951991;29;20413;-73
2021/01/14 13:15:09;;;;;;;6.55;3.83;;;;;;;;;;4939657;28;20408;-73
2021/01/14 13:17:35;;;;;;;5.45;3.83;;;;;;;;;;4949238;29;20890;-73
2021/01/14 13:20:02;;;;;;;6.05;3.97;;;;;;;;;;4946227;29;20408;-73
2021/01/14 13:22:28;;;;;;;4.45;4.03;;;;;;;;;;4953590;29;20441;-72
2021/01/14 13:24:55;;;;;;;4.78;3.80;;;;;;;;;;4944725;29;20745;-73
2021/01/14 13:27:21;;;;;;;4.38;3.42;;;;;;;;;;4949809;28;20461;-73
2021/01/14 13:29:47;;;;;;;4.60;3.28;;;;;;;;;;4942405;29;20419;-73
2021/01/14 13:32:15;;;;;;;10.32;6.80;;;;;;;;;;4953015;29;20428;-73
2021/01/14 13:34:41;;;;;;;4.20;2.88;;;;;;;;;;4954762;28;20420;-73
2021/01/14 13:37:07;;;;;;;5.18;4.03;;;;;;;;;;4960254;28;20408;-73
2021/01/14 13:39:33;;;;;;;7.20;4.60;;;;;;;;;;4947436;28;20764;-73
2021/01/14 13:42:00;;;;;;;6.82;5.07;;;;;;;;;;4942028;29;20408;-73
2021/01/14 13:44:27;;;;;;;6.18;5.05;;;;;;;;;;4953602;29;20496;-73
2021/01/14 13:46:53;;;;;;;9.23;6.93;;;;;;;;;;4949269;29;20439;-73
2021/01/14 13:49:20;;;;;;;5.77;4.20;;;;;;;;;;4953751;29;20461;-73
2021/01/14 13:51:47;;;;;;;8.95;6.88;;;;;;;;;;4960421;28;20453;-73